»·PEaware :: N2102W KPSP-KSNA

N2102W :: KPSP-KSNA

FLIGHT INFORMATION

Flight Status: Arrived
Operator: Privately registered:
United States
More flights under this callsign
Pilot: Eric G. (5941)
Aircraft: Cessna 525C Citation CJ4
(C25C)
More flights by this aircraft type
Origin: KPSP Palm Springs Intl
United States
Destination: KSNA John Wayne-Orange Co
United States
More flights between these airports :: More routes between these airports
Route: CATH1 PSP V388 DEWAY FRETS KAYOH7
File this flight plan on PilotEdge
Remarks: NA
Altitude:
(Current/Filed)
16,000ft
Speed:
(Current/Filed)
315kts
Departed: 25-Oct-20 01:53 PM
Arrived: 25-Oct-20 02:21 PM
Distance/Time
Traveled:
1293nm/0:28
Distance/Time
To Go:
Arrived

Flight Plot

Page will automatically refresh every two minutes.

Flight plan parsing failed; only flown route is shown


Map Options




Map Legend


Flown Route
Filed Route
Departure Airport
Arrival Airport
Navaid (VOR, NDB)
Fix

Horizontal Profiles

Position Reports

Time Latitude Longitude Heading Altitude Ground
Speed
25-Oct-20 13:34 33.827747 -116.508836 143 435ft 0kts
25-Oct-20 13:35 33.827747 -116.508836 143 435ft 0kts
25-Oct-20 13:36 33.827747 -116.508836 143 435ft 0kts
25-Oct-20 13:37 33.827747 -116.508836 143 435ft 0kts
25-Oct-20 13:38 33.827747 -116.508836 143 435ft 0kts
25-Oct-20 13:39 33.827747 -116.508836 143 435ft 0kts
25-Oct-20 13:40 33.827747 -116.508836 143 435ft 0kts
25-Oct-20 13:41 33.827747 -116.508836 143 435ft 0kts
25-Oct-20 13:42 33.827747 -116.508836 143 435ft 0kts
25-Oct-20 13:43 33.827747 -116.508836 143 435ft 0kts
25-Oct-20 13:44 33.827747 -116.508836 143 435ft 0kts
25-Oct-20 13:45 33.827747 -116.508836 143 435ft 0kts
25-Oct-20 13:46 33.827587 -116.508971 253 436ft 4kts
25-Oct-20 13:47 33.827642 -116.509210 354 436ft 0kts
25-Oct-20 13:48 33.828551 -116.508732 119 436ft 13kts
25-Oct-20 13:49 33.822638 -116.503418 143 413ft 37kts
25-Oct-20 13:50 33.818488 -116.498979 90 400ft 0kts
25-Oct-20 13:51 33.818514 -116.498436 78 399ft 6kts
25-Oct-20 13:52 33.829895 -116.507784 324 703ft 177kts
25-Oct-20 13:53 33.873458 -116.538563 333 4025ft 186kts
25-Oct-20 13:54 33.919964 -116.533848 60 6905ft 214kts
25-Oct-20 13:55 33.899946 -116.469141 128 10428ft 219kts
25-Oct-20 13:56 33.864337 -116.400398 76 11982ft 262kts
25-Oct-20 13:57 33.925051 -116.388766 309 12248ft 326kts
25-Oct-20 13:58 33.935354 -116.498282 266 12239ft 340kts
25-Oct-20 13:59 33.935451 -116.611783 278 12234ft 339kts
25-Oct-20 14:00 33.945756 -116.724339 267 12224ft 341kts
25-Oct-20 14:01 33.921950 -116.835774 254 12235ft 345kts
25-Oct-20 14:02 33.893848 -116.946574 256 12230ft 347kts
25-Oct-20 14:03 33.871547 -117.058083 258 12273ft 340kts
25-Oct-20 14:04 33.851335 -117.159549 256 10669ft 277kts
25-Oct-20 14:05 33.830236 -117.242898 255 9118ft 260kts
25-Oct-20 14:06 33.809463 -117.325356 259 8253ft 244kts
25-Oct-20 14:07 33.794269 -117.403835 260 8196ft 243kts
25-Oct-20 14:08 33.780367 -117.484918 271 8214ft 250kts
25-Oct-20 14:09 33.778826 -117.572813 270 8223ft 277kts
25-Oct-20 14:10 33.790853 -117.644831 311 8157ft 207kts
25-Oct-20 14:11 33.837794 -117.671484 11 7308ft 205kts
25-Oct-20 14:12 33.891044 -117.658173 13 5429ft 188kts
25-Oct-20 14:13 33.930157 -117.669691 258 3609ft 189kts
25-Oct-20 14:14 33.891752 -117.718543 222 3045ft 202kts
25-Oct-20 14:15 33.848439 -117.760823 211 3041ft 199kts
25-Oct-20 14:16 33.799783 -117.792647 210 3041ft 202kts
25-Oct-20 14:17 33.751145 -117.821452 205 2520ft 154kts
25-Oct-20 14:18 33.720811 -117.840578 207 1068ft 121kts
25-Oct-20 14:19 33.691394 -117.859111 207 281ft 119kts
25-Oct-20 14:20 33.671809 -117.871292 207 53ft 20kts
25-Oct-20 14:21 33.669489 -117.870581 39 54ft 16kts
25-Oct-20 14:22 33.672227 -117.867381 97 51ft 11kts
25-Oct-20 14:23 33.672535 -117.866976 316 52ft 0kts
25-Oct-20 14:24 33.672535 -117.866976 316 52ft 0kts
25-Oct-20 14:25 33.672535 -117.866976 316 52ft 0kts
25-Oct-20 14:26 33.672535 -117.866976 316 52ft 0kts
25-Oct-20 14:27 33.672535 -117.866976 316 52ft 0kts
25-Oct-20 14:28 33.672535 -117.866976 316 52ft 0kts
25-Oct-20 14:29 33.672535 -117.866976 316 52ft 0kts
25-Oct-20 14:30 0.000408 0.013975 0 2ft 0kts
25-Oct-20 14:31 42.226658 -91.164464 235 827ft 0kts
25-Oct-20 14:32 42.226658 -91.164464 235 840ft 0kts
25-Oct-20 14:33 42.226658 -91.164464 235 840ft 0kts
25-Oct-20 14:35 42.226658 -91.164464 235 840ft 0kts
25-Oct-20 14:36 42.226658 -91.164465 235 840ft 0kts

Navigation Log

Ident Type
Flight plan parsing failed, navigation log unavailable